aviador You're here:

LFGJ Decoded Metar

DOLE in FRANCE
Report Time2017-08-22 11:00:00
UTC Time2017-08-22 11:10:14
Flight Rules vfr VFR
WindVRB at 03 kt
Visibility9999 m
Phenomena:N/A
Clouds:N/A
Expected CloudBase > 5,600 ft AGL from Temp-Dew spread
CeilingNone
Temp27°C (ISA +13)
Dew Point13°C (42% RH)
Heat Index27.0°C
AAT26.8°C
QNH1019 hPa
Density Alt2,175 ft
Elevation643 ft
Report Wrong Elevation
Raw Report
METAR LFGJ 221100Z AUTO VRB03KT CAVOK 27/13 Q1019 NOSIG=

Extra information for LFGJ:More info

Metar Taf Metar & Taf Last 4 Metars F.Rules Stats Wind Profile Meteogram Temp Stats Airport Information Weather charts Add Link Nearby VenuesMetar ALERT Operation Metar Decoded Social comments